Time,TemperatureF,DewpointF,PressureIn,WindDirection,WindDirectionDegrees,WindSpeedMPH,WindSpeedGustMPH,Humidity,HourlyPrecipIn,Conditions,Clouds,dailyrainin,SoftwareType,DateUTC
2013-02-25 00:01:00,32.0,19.0,30.04,NW,320,7.0,-999.0,59,-99.99,,,-99.99,,2013-02-25 05:01:00,
2013-02-25 00:11:00,32.0,19.0,30.04,WNW,300,6.0,-999.0,59,-99.99,,,-99.99,,2013-02-25 05:11:00,
2013-02-25 00:22:00,32.0,19.0,30.05,NW,310,7.0,-999.0,59,-99.99,,,-99.99,,2013-02-25 05:22:00,
2013-02-25 00:32:00,32.0,19.0,30.05,NW,320,5.0,-999.0,59,-99.99,,,-99.99,,2013-02-25 05:32:00,
2013-02-25 00:42:00,32.0,19.0,30.05,WNW,300,9.0,-999.0,59,-99.99,,,-99.99,,2013-02-25 05:42:00,
2013-02-25 00:52:00,32.0,19.0,30.06,WNW,300,6.0,-999.0,59,-99.99,,,-99.99,,2013-02-25 05:52:00,
2013-02-25 01:02:00,32.0,19.0,30.06,WNW,300,6.0,-999.0,59,-99.99,,,-99.99,,2013-02-25 06:02:00,
2013-02-25 01:11:00,32.0,19.0,30.05,NW,320,9.0,-999.0,59,-99.99,,,-99.99,,2013-02-25 06:11:00,
2013-02-25 01:21:00,32.0,19.0,30.06,NW,320,6.0,-999.0,59,-99.99,,,-99.99,,2013-02-25 06:21:00,
2013-02-25 01:32:00,32.0,19.0,30.06,NW,320,10.0,-999.0,59,-99.99,,,-99.99,,2013-02-25 06:32:00,
2013-02-25 01:42:00,32.0,19.0,30.06,WNW,300,7.0,-999.0,59,-99.99,,,-99.99,,2013-02-25 06:42:00,
2013-02-25 01:51:00,32.0,19.0,30.06,NNW,340,7.0,-999.0,59,-99.99,,,-99.99,,2013-02-25 06:51:00,
2013-02-25 02:01:00,32.0,19.0,30.06,NNW,340,7.0,-999.0,59,-99.99,,,-99.99,,2013-02-25 07:01:00,
2013-02-25 02:11:00,32.0,19.0,30.06,NW,310,8.0,-999.0,59,-99.99,,,-99.99,,2013-02-25 07:11:00,
2013-02-25 02:21:00,32.0,19.0,30.06,NW,320,7.0,-999.0,59,-99.99,,,-99.99,,2013-02-25 07:21:00,
2013-02-25 02:32:00,32.0,21.0,30.07,NNW,330,5.0,-999.0,63,-99.99,,,-99.99,,2013-02-25 07:32:00,
2013-02-25 02:42:00,32.0,19.0,30.07,WNW,300,6.0,-999.0,59,-99.99,,,-99.99,,2013-02-25 07:42:00,
2013-02-25 02:51:00,30.0,19.0,30.06,NW,320,8.0,-999.0,63,-99.99,,,-99.99,,2013-02-25 07:51:00,
2013-02-25 03:01:00,30.0,19.0,30.06,NW,320,8.0,-999.0,63,-99.99,,,-99.99,,2013-02-25 08:01:00,
2013-02-25 03:11:00,30.0,19.0,30.08,WNW,290,3.0,-999.0,63,-99.99,,,-99.99,,2013-02-25 08:11:00,
2013-02-25 03:21:00,28.0,19.0,30.07,WNW,300,2.0,-999.0,68,-99.99,,,-99.99,,2013-02-25 08:21:00,
2013-02-25 03:32:00,28.0,19.0,30.08,NW,320,5.0,-999.0,68,-99.99,,,-99.99,,2013-02-25 08:32:00,
2013-02-25 03:41:00,28.0,19.0,30.08,NW,310,6.0,-999.0,68,-99.99,,,-99.99,,2013-02-25 08:41:00,
2013-02-25 03:52:00,28.0,19.0,30.08,WNW,300,5.0,-999.0,68,-99.99,,,-99.99,,2013-02-25 08:52:00,
2013-02-25 04:01:00,28.0,19.0,30.08,WNW,300,5.0,-999.0,68,-99.99,,,-99.99,,2013-02-25 09:01:00,
2013-02-25 04:12:00,28.0,19.0,30.08,WNW,300,3.0,-999.0,68,-99.99,,,-99.99,,2013-02-25 09:12:00,
2013-02-25 04:21:00,28.0,19.0,30.08,NW,320,6.0,-999.0,68,-99.99,,,-99.99,,2013-02-25 09:21:00,
2013-02-25 04:32:00,28.0,19.0,30.08,NW,320,6.0,-999.0,68,-99.99,,,-99.99,,2013-02-25 09:32:00,
2013-02-25 04:42:00,28.0,19.0,30.08,NW,320,6.0,-999.0,68,-99.99,,,-99.99,,2013-02-25 09:42:00,
2013-02-25 04:52:00,28.0,19.0,30.08,NW,320,6.0,-999.0,68,-99.99,,,-99.99,,2013-02-25 09:52:00,
2013-02-25 05:01:00,28.0,19.0,30.08,NW,320,6.0,-999.0,68,-99.99,,,-99.99,,2013-02-25 10:01:00,
2013-02-25 18:52:00,32.0,27.0,30.22,NE,50,1.0,-999.0,80,-99.99,,,-99.99,,2013-02-25 23:52:00,
2013-02-25 19:02:00,32.0,27.0,30.22,NE,50,1.0,-999.0,80,-99.99,,,-99.99,,2013-02-26 00:02:00,
2013-02-25 19:12:00,32.0,27.0,30.22,North,0,0.0,-999.0,80,-99.99,,,-99.99,,2013-02-26 00:12:00,
2013-02-25 19:22:00,32.0,27.0,30.22,East,90,1.0,-999.0,80,-99.99,,,-99.99,,2013-02-26 00:22:00,
2013-02-25 19:32:00,32.0,27.0,30.22,North,0,0.0,-999.0,80,-99.99,,,-99.99,,2013-02-26 00:32:00,
2013-02-25 19:42:00,30.0,27.0,30.23,North,0,0.0,-999.0,86,-99.99,,,-99.99,,2013-02-26 00:42:00,
2013-02-25 19:51:00,30.0,27.0,30.23,North,0,0.0,-999.0,86,-99.99,,,-99.99,,2013-02-26 00:51:00,
2013-02-25 20:02:00,30.0,27.0,30.23,North,0,0.0,-999.0,86,-99.99,,,-99.99,,2013-02-26 01:02:00,
2013-02-25 20:11:00,28.0,27.0,30.23,North,0,0.0,-999.0,92,-99.99,,,-99.99,,2013-02-26 01:11:00,
2013-02-25 20:21:00,28.0,27.0,30.24,North,0,0.0,-999.0,92,-99.99,,,-99.99,,2013-02-26 01:21:00,
2013-02-25 20:32:00,28.0,27.0,30.24,North,0,0.0,-999.0,92,-99.99,,,-99.99,,2013-02-26 01:32:00,
2013-02-25 20:42:00,28.0,27.0,30.24,North,0,0.0,-999.0,92,-99.99,,,-99.99,,2013-02-26 01:42:00,
2013-02-25 20:51:00,28.0,27.0,30.25,North,0,0.0,-999.0,92,-99.99,,,-99.99,,2013-02-26 01:51:00,
2013-02-25 21:01:00,28.0,27.0,30.25,North,0,0.0,-999.0,92,-99.99,,,-99.99,,2013-02-26 02:01:00,
2013-02-25 21:11:00,27.0,27.0,30.25,North,0,0.0,-999.0,100,-99.99,,,-99.99,,2013-02-26 02:11:00,
2013-02-25 21:21:00,27.0,27.0,30.25,North,0,0.0,-999.0,100,-99.99,,,-99.99,,2013-02-26 02:21:00,
2013-02-25 21:32:00,27.0,27.0,30.25,ESE,120,1.0,-999.0,100,-99.99,,,-99.99,,2013-02-26 02:32:00,
2013-02-25 21:42:00,27.0,27.0,30.25,SE,140,1.0,-999.0,100,-99.99,,,-99.99,,2013-02-26 02:42:00,
2013-02-25 21:52:00,27.0,27.0,30.25,SSE,150,1.0,-999.0,100,-99.99,,,-99.99,,2013-02-26 02:52:00,
2013-02-25 22:02:00,27.0,27.0,30.25,SSE,150,1.0,-999.0,100,-99.99,,,-99.99,,2013-02-26 03:02:00,
2013-02-25 22:11:00,27.0,27.0,30.24,South,180,1.0,-999.0,100,-99.99,,,-99.99,,2013-02-26 03:11:00,
2013-02-25 22:21:00,27.0,27.0,30.24,SW,230,1.0,-999.0,100,-99.99,,,-99.99,,2013-02-26 03:21:00,
2013-02-25 22:32:00,27.0,27.0,30.24,North,0,0.0,-999.0,100,-99.99,,,-99.99,,2013-02-26 03:32:00,
2013-02-25 22:42:00,28.0,27.0,30.24,North,0,0.0,-999.0,92,-99.99,,,-99.99,,2013-02-26 03:42:00,
2013-02-25 22:52:00,28.0,27.0,30.24,North,0,0.0,-999.0,92,-99.99,,,-99.99,,2013-02-26 03:52:00,
2013-02-25 23:02:00,28.0,27.0,30.24,North,0,0.0,-999.0,92,-99.99,,,-99.99,,2013-02-26 04:02:00,
2013-02-25 23:11:00,27.0,27.0,30.24,North,350,1.0,-999.0,100,-99.99,,,-99.99,,2013-02-26 04:11:00,
2013-02-25 23:22:00,27.0,27.0,30.24,NNE,20,1.0,-999.0,100,-99.99,,,-99.99,,2013-02-26 04:22:00,
2013-02-25 23:32:00,27.0,27.0,30.25,North,-999,-999.0,-999.0,100,-99.99,,,-99.99,,2013-02-26 04:32:00,
2013-02-25 23:42:00,27.0,27.0,30.25,North,0,0.0,-999.0,100,-99.99,,,-99.99,,2013-02-26 04:42:00,
2013-02-25 23:52:00,27.0,27.0,30.24,North,0,0.0,-999.0,100,-99.99,,,-99.99,,2013-02-26 04:52:00,